Time;durP1;ratioP1;P1;durP2;ratioP2;P2;SDS_P1;SDS_P2;PMS_P1;PMS_P2;Temp;Humidity;BMP_temperature;BMP_pressure;BME280_temperature;BME280_humidity;BME280_pressure;Samples;Min_cycle;Max_cycle;Signal;HPM_P1;HPM_P2
2022/07/04 00:01:11;;;;;;;3.28;2.15;;;;;;;;;;5007668;28;20042;-73
2022/07/04 00:03:37;;;;;;;3.92;1.75;;;;;;;;;;4993430;28;20049;-72
2022/07/04 00:06:03;;;;;;;4.50;2.67;;;;;;;;;;5011334;28;20046;-73
2022/07/04 00:08:29;;;;;;;4.38;2.28;;;;;;;;;;4991775;28;20084;-73
2022/07/04 00:10:55;;;;;;;4.97;2.25;;;;;;;;;;5010539;28;20385;-75
2022/07/04 00:13:21;;;;;;;5.35;2.80;;;;;;;;;;5007470;28;20054;-72
2022/07/04 00:15:47;;;;;;;8.98;2.80;;;;;;;;;;4998305;28;20137;-73
2022/07/04 00:18:13;;;;;;;4.28;2.60;;;;;;;;;;5009759;28;20045;-77
2022/07/04 00:20:39;;;;;;;8.05;2.88;;;;;;;;;;5005672;28;20041;-72
2022/07/04 00:23:05;;;;;;;4.43;2.33;;;;;;;;;;5009980;28;20030;-72
2022/07/04 00:25:31;;;;;;;3.25;2.63;;;;;;;;;;4995423;28;20451;-72
2022/07/04 00:27:57;;;;;;;4.65;2.30;;;;;;;;;;5009434;28;20030;-72
2022/07/04 00:30:23;;;;;;;5.30;2.25;;;;;;;;;;5013444;28;20386;-72
2022/07/04 00:32:49;;;;;;;5.63;2.42;;;;;;;;;;5013572;28;20026;-74
2022/07/04 00:35:15;;;;;;;5.25;2.10;;;;;;;;;;4996552;28;20454;-72
2022/07/04 00:37:41;;;;;;;5.70;2.10;;;;;;;;;;5015273;28;20034;-72
2022/07/04 00:40:07;;;;;;;3.58;2.33;;;;;;;;;;5010279;28;20544;-72
2022/07/04 00:42:33;;;;;;;2.78;2.40;;;;;;;;;;5007902;28;20030;-72
2022/07/04 00:44:59;;;;;;;3.33;2.33;;;;;;;;;;5012871;28;20104;-72
2022/07/04 00:47:25;;;;;;;4.10;2.10;;;;;;;;;;5013976;28;20038;-72
2022/07/04 00:49:51;;;;;;;6.18;2.03;;;;;;;;;;5012173;28;20057;-74
2022/07/04 00:52:17;;;;;;;6.70;2.45;;;;;;;;;;5012192;28;20120;-73
2022/07/04 00:54:45;;;;;;;6.40;2.10;;;;;;;;;;5013165;28;20067;-72
2022/07/04 00:57:11;;;;;;;5.88;2.20;;;;;;;;;;5011622;28;20061;-72
2022/07/04 00:59:37;;;;;;;6.53;2.45;;;;;;;;;;5006631;28;20042;-73
2022/07/04 01:02:03;;;;;;;2.80;2.22;;;;;;;;;;4993073;28;20160;-73
2022/07/04 01:04:29;;;;;;;8.20;2.40;;;;;;;;;;5012754;28;20064;-73
2022/07/04 01:06:55;;;;;;;5.40;2.63;;;;;;;;;;5013177;28;20033;-73
2022/07/04 01:09:22;;;;;;;4.35;2.10;;;;;;;;;;5012248;28;20033;-73
2022/07/04 01:11:51;;;;;;;5.35;2.40;;;;;;;;;;5009690;28;20034;-73
2022/07/04 01:14:17;;;;;;;4.35;2.53;;;;;;;;;;5011155;28;20046;-73
2022/07/04 01:16:43;;;;;;;3.67;2.47;;;;;;;;;;5003424;28;20125;-73
2022/07/04 01:19:09;;;;;;;4.63;2.15;;;;;;;;;;5010231;28;20482;-73
2022/07/04 01:21:35;;;;;;;3.38;2.28;;;;;;;;;;5012041;28;20053;-73
2022/07/04 01:24:01;;;;;;;5.15;2.60;;;;;;;;;;5011614;28;20042;-72
2022/07/04 01:26:30;;;;;;;4.28;2.50;;;;;;;;;;5015537;28;20474;-72
2022/07/04 01:28:56;;;;;;;4.15;2.47;;;;;;;;;;5012755;28;20034;-72
2022/07/04 01:31:22;;;;;;;4.35;2.45;;;;;;;;;;5011809;28;20493;-72
2022/07/04 01:33:48;;;;;;;4.63;2.47;;;;;;;;;;5007298;28;20099;-72
2022/07/04 01:36:14;;;;;;;5.18;2.65;;;;;;;;;;5010758;28;20474;-72
2022/07/04 01:38:40;;;;;;;4.35;3.15;;;;;;;;;;5010759;28;20037;-72
2022/07/04 01:41:06;;;;;;;5.18;2.88;;;;;;;;;;5012454;28;20042;-72
2022/07/04 01:43:32;;;;;;;3.40;2.90;;;;;;;;;;4994834;28;20563;-74
2022/07/04 01:45:58;;;;;;;4.55;2.70;;;;;;;;;;5011757;28;20034;-72
2022/07/04 01:48:24;;;;;;;3.95;2.75;;;;;;;;;;5009557;28;20037;-72
2022/07/04 01:50:50;;;;;;;5.30;2.97;;;;;;;;;;5004824;28;20037;-72
2022/07/04 01:53:16;;;;;;;3.80;2.88;;;;;;;;;;5008751;28;20038;-73
2022/07/04 01:55:42;;;;;;;3.95;2.45;;;;;;;;;;5012324;28;20030;-73
2022/07/04 01:58:08;;;;;;;7.13;2.85;;;;;;;;;;5009390;28;20132;-73
2022/07/04 02:03:18;;;;;;;4.15;3.03;;;;;;;;;;5003041;28;20073;-73
2022/07/04 02:05:44;;;;;;;6.60;3.17;;;;;;;;;;5011554;28;20058;-73
2022/07/04 02:08:11;;;;;;;4.45;2.88;;;;;;;;;;5003798;28;20397;-73
2022/07/04 02:10:37;;;;;;;10.40;3.20;;;;;;;;;;5009879;28;20038;-75
2022/07/04 02:13:03;;;;;;;8.55;3.20;;;;;;;;;;5009759;28;20115;-74
2022/07/04 02:15:29;;;;;;;3.97;3.05;;;;;;;;;;5013440;28;20862;-73
2022/07/04 02:17:56;;;;;;;10.93;3.40;;;13.50;99.90;;;;;;5008103;28;20030;-73
2022/07/04 02:20:22;;;;;;;4.63;3.10;;;;;;;;;;5012261;28;20064;-73
2022/07/04 02:22:48;;;;;;;8.70;3.45;;;;;;;;;;4975570;28;20041;-73
2022/07/04 02:25:14;;;;;;;4.93;3.63;;;;;;;;;;5009874;28;20038;-73
2022/07/04 02:27:40;;;;;;;5.95;3.05;;;;;;;;;;5008481;28;20386;-76
2022/07/04 02:30:06;;;;;;;8.20;3.38;;;;;;;;;;5011033;28;20045;-74
2022/07/04 02:32:32;;;;;;;5.25;3.72;;;;;;;;;;5010459;28;20030;-73
2022/07/04 02:34:58;;;;;;;5.93;3.75;;;;;;;;;;5009790;28;20096;-74
2022/07/04 02:37:24;;;;;;;7.05;3.45;;;;;;;;;;5007599;28;20028;-73
2022/07/04 02:39:50;;;;;;;5.47;3.92;;;;;;;;;;5008539;28;20105;-73
2022/07/04 02:42:16;;;;;;;6.60;3.85;;;;;;;;;;4993375;28;20029;-73
2022/07/04 02:44:43;;;;;;;7.60;3.88;;;;;;;;;;5010413;28;20042;-73
2022/07/04 02:47:09;;;;;;;6.60;3.67;;;;;;;;;;5010213;28;20033;-73
2022/07/04 02:49:35;;;;;;;6.35;3.90;;;;;;;;;;5008818;28;20038;-76
2022/07/04 02:52:01;;;;;;;4.95;3.53;;;;;;;;;;5008109;28;20033;-73
2022/07/04 02:54:27;;;;;;;5.32;3.72;;;;;;;;;;5010383;28;20063;-72
2022/07/04 02:56:53;;;;;;;5.68;3.72;;;;;;;;;;5010747;28;20038;-73
2022/07/04 02:59:19;;;;;;;9.18;3.75;;;;;;;;;;4984068;28;20046;-74
2022/07/04 03:01:45;;;;;;;5.95;3.60;;;;;;;;;;5004293;28;20393;-73
2022/07/04 03:04:11;;;;;;;6.15;3.63;;;;;;;;;;5000357;28;20529;-73
2022/07/04 03:06:39;;;;;;;6.63;3.97;;;;;;;;;;5010264;28;20038;-73
2022/07/04 03:09:05;;;;;;;7.15;3.45;;;;;;;;;;5007117;28;20410;-73
2022/07/04 03:11:31;;;;;;;7.45;4.13;;;;;;;;;;4999152;28;20425;-73
2022/07/04 03:13:57;;;;;;;5.63;3.45;;;;;;;;;;5010270;28;20054;-73
2022/07/04 03:16:23;;;;;;;5.30;3.63;;;;;;;;;;4991658;28;20046;-73
2022/07/04 03:18:49;;;;;;;4.88;3.38;;;;;;;;;;5008968;28;20041;-77
2022/07/04 03:21:16;;;;;;;7.32;3.13;;;;;;;;;;5010077;28;20038;-73
2022/07/04 03:23:42;;;;;;;4.93;3.88;;;;;;;;;;5008220;28;20076;-75
2022/07/04 03:26:09;;;;;;;6.15;3.60;;;;;;;;;;5011210;28;20042;-74
2022/07/04 03:28:35;;;;;;;7.70;4.07;;;;;;;;;;4993519;28;20109;-73
2022/07/04 03:31:01;;;;;;;6.97;3.65;;;;;;;;;;5010496;28;20147;-73
2022/07/04 03:33:27;;;;;;;7.35;4.28;;;;;;;;;;4990441;28;20037;-73
2022/07/04 03:35:53;;;;;;;4.07;3.67;;;;;;;;;;5009117;28;20048;-73
2022/07/04 03:38:19;;;;;;;11.32;4.55;;;;;;;;;;5005879;28;20041;-78
2022/07/04 03:40:45;;;;;;;6.32;4.20;;;;;;;;;;4989693;28;20046;-73
2022/07/04 03:43:11;;;;;;;8.38;4.57;;;;;;;;;;5009923;28;20061;-77
2022/07/04 03:45:37;;;;;;;10.18;4.90;;;;;;;;;;5008979;28;20080;-73
2022/07/04 03:48:03;;;;;;;5.45;4.32;;;;;;;;;;4991470;28;20120;-73
2022/07/04 03:50:29;;;;;;;6.93;3.75;;;;;;;;;;5007602;28;20482;-73
2022/07/04 03:52:55;;;;;;;6.85;4.10;;;;;;;;;;5003518;28;20478;-73
2022/07/04 03:55:21;;;;;;;9.05;4.75;;;;;;;;;;5008250;28;20557;-73
2022/07/04 03:57:47;;;;;;;6.68;4.03;;;;;;;;;;5010418;28;20030;-76
2022/07/04 04:00:13;;;;;;;7.18;4.45;;;;;;;;;;4996880;28;20057;-73
2022/07/04 04:02:39;;;;;;;6.97;4.68;;;;;;;;;;5010897;28;20109;-73
2022/07/04 04:07:50;;;;;;;4.75;3.70;;;;;;;;;;5011614;28;20559;-73
2022/07/04 04:10:16;;;;;;;6.18;4.15;;;;;;;;;;5012511;28;20037;-73
2022/07/04 04:12:42;;;;;;;8.10;3.95;;;;;;;;;;5013524;28;20045;-72
2022/07/04 04:15:09;;;;;;;8.68;4.28;;;;;;;;;;5013977;28;20034;-72
2022/07/04 04:17:36;;;;;;;7.32;4.30;;;;;;;;;;5009183;28;20061;-72
2022/07/04 04:20:02;;;;;;;8.85;4.38;;;;;;;;;;5012247;28;20484;-76
2022/07/04 04:22:29;;;;;;;5.80;3.70;;;;;;;;;;5008596;28;20445;-72
2022/07/04 04:24:55;;;;;;;6.85;4.50;;;;;;;;;;5010962;28;20033;-72
2022/07/04 04:27:21;;;;;;;9.45;4.85;;;;;;;;;;5017197;28;20022;-72
2022/07/04 04:29:47;;;;;;;6.93;4.47;;;;;;;;;;5010998;28;20017;-72
2022/07/04 04:32:13;;;;;;;7.00;4.90;;;;;;;;;;5008344;28;20034;-71
2022/07/04 04:34:40;;;;;;;9.18;4.38;;;;;;;;;;5013502;28;20038;-72
2022/07/04 04:37:06;;;;;;;8.43;4.95;;;14.10;99.90;;;;;;4994536;28;20026;-72
2022/07/04 04:39:32;;;;;;;9.50;4.65;;;;;;;;;;5008833;28;20034;-77
2022/07/04 04:41:58;;;;;;;6.05;4.43;;;;;;;;;;5011069;28;20045;-72
2022/07/04 04:44:24;;;;;;;8.82;5.57;;;;;;;;;;5014008;28;20042;-72
2022/07/04 04:46:50;;;;;;;6.88;5.03;;;;;;;;;;5012246;28;20030;-72
2022/07/04 04:49:17;;;;;;;9.20;5.15;;;;;;;;;;5012506;28;20389;-72
2022/07/04 04:51:43;;;;;;;6.97;4.80;;;;;;;;;;4994063;28;20037;-74
2022/07/04 04:54:09;;;;;;;6.65;4.50;;;;;;;;;;5010964;28;20045;-73
2022/07/04 04:56:35;;;;;;;15.25;5.13;;;;;;;;;;4999492;28;20666;-72
2022/07/04 04:59:01;;;;;;;13.20;5.10;;;;;;;;;;5011613;28;20029;-77
2022/07/04 05:01:27;;;;;;;9.65;4.72;;;;;;;;;;5010964;28;21034;-74
2022/07/04 05:03:53;;;;;;;8.52;4.68;;;;;;;;;;5007299;28;20348;-73
2022/07/04 05:06:19;;;;;;;10.13;4.88;;;;;;;;;;5001715;28;20037;-77
2022/07/04 05:08:46;;;;;;;12.05;5.20;;;;;;;;;;4999208;28;20034;-74
2022/07/04 05:11:12;;;;;;;12.40;5.93;;;;;;;;;;5013368;28;20105;-74
2022/07/04 05:13:38;;;;;;;12.10;5.30;;;;;;;;;;4992087;28;20264;-74
2022/07/04 05:16:04;;;;;;;13.93;5.05;;;;;;;;;;5000882;28;20377;-74
2022/07/04 05:18:30;;;;;;;32.17;22.45;;;;;;;;;;5008346;28;20080;-75
2022/07/04 05:20:56;;;;;;;11.27;5.78;;;;;;;;;;5002569;28;20405;-71
2022/07/04 05:23:22;;;;;;;24.10;16.48;;;;;;;;;;5012008;28;20038;-71
2022/07/04 05:25:48;;;;;;;7.07;5.07;;;;;;;;;;5018438;28;20563;-76
2022/07/04 05:28:14;;;;;;;8.48;5.03;;;;;;;;;;5010326;28;20037;-76
2022/07/04 05:30:42;;;;;;;10.38;5.07;;;;;;;;;;5011318;28;20045;-77
2022/07/04 05:33:08;;;;;;;10.95;5.45;;;15.00;99.90;;;;;;5008413;28;20026;-75
2022/07/04 05:35:34;;;;;;;9.30;5.03;;;;;;;;;;4970556;28;20491;-77
2022/07/04 05:38:00;;;;;;;11.27;5.45;;;;;;;;;;5009468;28;20024;-78
2022/07/04 05:40:26;;;;;;;8.43;5.20;;;;;;;;;;5008254;28;20414;-75
2022/07/04 05:42:52;;;;;;;8.10;5.18;;;;;;;;;;4991111;28;20037;-75
2022/07/04 05:45:18;;;;;;;8.10;4.68;;;;;;;;;;5009537;28;20541;-76
2022/07/04 05:47:44;;;;;;;9.65;4.93;;;;;;;;;;5009366;28;20085;-75
2022/07/04 05:50:10;;;;;;;10.60;5.13;;;;;;;;;;5008206;28;20084;-75
2022/07/04 05:52:36;;;;;;;13.25;4.85;;;;;;;;;;5007480;28;20080;-76
2022/07/04 05:55:03;;;;;;;8.48;5.88;;;;;;;;;;4986556;28;20147;-76
2022/07/04 05:57:29;;;;;;;19.95;12.63;;;;;;;;;;4985945;28;20116;-77
2022/07/04 05:59:55;;;;;;;21.92;8.43;;;;;;;;;;4996425;28;20037;-76
2022/07/04 06:02:21;;;;;;;10.30;5.47;;;;;;;;;;5005459;28;20156;-76
2022/07/04 06:04:47;;;;;;;16.83;4.80;;;;;;;;;;5009273;28;20112;-74
2022/07/04 06:07:13;;;;;;;10.95;4.72;;;;;;;;;;5003607;28;20113;-74
2022/07/04 06:09:39;;;;;;;12.02;4.43;;;;;;;;;;4998178;28;20072;-77
2022/07/04 06:12:05;;;;;;;17.88;4.47;;;;;;;;;;5004097;28;20030;-75
2022/07/04 06:14:32;;;;;;;13.00;4.40;;;;;;;;;;5005261;28;20066;-81
2022/07/04 06:16:58;;;;;;;13.90;3.60;;;;;;;;;;5001578;28;20026;-75
2022/07/04 06:19:24;;;;;;;14.38;4.15;;;;;;;;;;4986356;28;20034;-75
2022/07/04 06:21:50;;;;;;;15.45;4.40;;;;;;;;;;4988955;28;20397;-82
2022/07/04 06:24:16;;;;;;;12.27;3.83;;;;;;;;;;5002856;28;20120;-75
2022/07/04 06:26:42;;;;;;;29.42;13.10;;;;;;;;;;4989822;28;20124;-73
2022/07/04 06:29:08;;;;;;;10.38;3.90;;;;;;;;;;5010302;28;20154;-73
2022/07/04 06:31:34;;;;;;;9.80;3.60;;;;;;;;;;5011103;28;20049;-74
2022/07/04 06:36:45;;;;;;;18.65;4.20;;;;;;;;;;5003865;28;20512;-74
2022/07/04 06:39:11;;;;;;;12.95;3.38;;;;;;;;;;4993449;28;20060;-72
2022/07/04 06:41:37;;;;;;;10.07;3.50;;;;;;;;;;5006642;28;20050;-72
2022/07/04 06:44:04;;;;;;;12.10;3.17;;;;;;;;;;5011544;28;20112;-73
2022/07/04 06:46:30;;;;;;;8.10;3.28;;;;;;;;;;5010267;28;20532;-72
2022/07/04 06:48:55;;;;;;;8.80;2.33;;;21.00;99.90;;;;;;5004024;28;20061;-72
2022/07/04 06:51:22;;;;;;;17.92;5.53;;;;;;;;;;5005719;28;20474;-71
2022/07/04 06:53:48;;;;;;;8.50;3.88;;;;;;;;;;4984026;28;20077;-71
2022/07/04 06:56:14;;;;;;;7.57;2.33;;;;;;;;;;5008102;28;20485;-72
2022/07/04 06:58:40;;;;;;;9.45;2.20;;;;;;;;;;4989389;28;20406;-73
2022/07/04 07:01:06;;;;;;;11.77;2.20;;;;;;;;;;5011794;28;20405;-72
2022/07/04 07:03:32;;;;;;;7.80;2.80;;;;;;;;;;5009429;28;20539;-74
2022/07/04 07:05:58;;;;;;;7.78;2.10;;;;;;;;;;5008888;28;20060;-72
2022/07/04 07:08:24;;;;;;;17.63;8.65;;;;;;;;;;5007204;28;20477;-72
2022/07/04 07:10:50;;;;;;;9.68;3.50;;;;;;;;;;5010633;28;20096;-72
2022/07/04 07:13:16;;;;;;;4.50;1.40;;;;;;;;;;5009682;28;20057;-72
2022/07/04 07:15:42;;;;;;;3.67;1.17;;;;;;;;;;5008514;28;20381;-72
2022/07/04 07:18:09;;;;;;;5.65;1.20;;;;;;;;;;4991208;28;20037;-71
2022/07/04 07:20:35;;;;;;;6.05;1.60;;;;;;;;;;5009651;28;20520;-71
2022/07/04 07:23:05;;;;;;;5.30;1.30;;;;;;;;;;5007391;28;20038;-71
2022/07/04 07:25:32;;;;;;;4.18;1.10;;;;;;;;;;5013608;28;20053;-71
2022/07/04 07:27:58;;;;;;;6.13;1.50;;;;;;;;;;5001910;28;20054;-72
2022/07/04 07:30:24;;;;;;;4.32;1.30;;;;;;;;;;5002032;28;20045;-72
2022/07/04 07:32:50;;;;;;;6.35;1.45;;;;;;;;;;5001313;28;20030;-72
2022/07/04 07:35:16;;;;;;;7.82;1.45;;;24.50;99.90;;;;;;4988959;28;20041;-71
2022/07/04 07:37:42;;;;;;;5.85;1.33;;;;;;;;;;5012831;28;20038;-71
2022/07/04 07:40:08;;;;;;;7.47;1.80;;;;;;;;;;4994073;28;20026;-71
2022/07/04 07:42:35;;;;;;;3.65;0.95;;;;;;;;;;5010681;28;20490;-73
2022/07/04 07:45:01;;;;;;;14.90;10.20;;;;;;;;;;5006334;28;20096;-71
2022/07/04 07:47:28;;;;;;;6.45;1.70;;;;;;;;;;5013009;28;20046;-70
2022/07/04 07:49:54;;;;;;;2.90;0.93;;;;;;;;;;4992406;28;20042;-72
2022/07/04 07:52:20;;;;;;;6.50;1.05;;;;;;;;;;5014281;28;20469;-74
2022/07/04 07:54:46;;;;;;;2.75;1.40;;;;;;;;;;5014639;28;20041;-72
2022/07/04 07:57:12;;;;;;;3.97;1.30;;;;;;;;;;5011419;28;20034;-72
2022/07/04 07:59:38;;;;;;;4.63;0.90;;;;;;;;;;5011534;28;20068;-74
2022/07/04 08:02:04;;;;;;;6.63;1.30;;;;;;;;;;5010040;28;20482;-71
2022/07/04 08:04:37;;;;;;;3.33;0.73;;;;;;;;;;5009782;28;20490;-71
2022/07/04 08:07:06;;;;;;;3.78;0.80;;;;;;;;;;5008713;28;20458;-71
2022/07/04 08:09:33;;;;;;;3.55;0.80;;;20.60;99.90;;;;;;5013239;28;20429;-71
2022/07/04 08:11:59;;;;;;;3.38;0.98;;;;;;;;;;4997301;28;20033;-71
2022/07/04 08:14:25;;;;;;;4.30;0.90;;;;;;;;;;5012126;28;20107;-71
2022/07/04 08:16:51;;;;;;;2.88;0.73;;;;;;;;;;5010918;28;20037;-72
2022/07/04 08:19:19;;;;;;;3.53;0.80;;;;;;;;;;5012541;28;20034;-73
2022/07/04 08:21:46;;;;;;;2.50;0.68;;;21.50;99.90;;;;;;5012526;28;20046;-72
2022/07/04 08:24:12;;;;;;;2.28;0.60;;;;;;;;;;4997354;28;20056;-72
2022/07/04 08:26:38;;;;;;;4.30;0.70;;;;;;;;;;5009832;28;20458;-72
2022/07/04 08:29:04;;;;;;;3.22;0.90;;;20.90;99.90;;;;;;4993213;28;20045;-71
2022/07/04 08:31:30;;;;;;;5.60;0.85;;;;;;;;;;5010473;28;20093;-71
2022/07/04 08:33:56;;;;;;;3.58;1.38;;;;;;;;;;5010807;28;20413;-71
2022/07/04 08:36:22;;;;;;;1.98;0.70;;;21.90;99.90;;;;;;5013840;28;20118;-71
2022/07/04 08:38:48;;;;;;;5.03;0.93;;;;;;;;;;5011427;28;20050;-71
2022/07/04 08:41:16;;;;;;;3.10;0.80;;;;;;;;;;5007814;28;20041;-72
2022/07/04 08:43:42;;;;;;;4.75;0.73;;;;;;;;;;5005193;28;20038;-72
2022/07/04 08:46:10;;;;;;;2.65;0.80;;;;;;;;;;4971682;28;20076;-72
2022/07/04 08:48:38;;;;;;;2.08;0.90;;;23.30;99.90;;;;;;5011804;28;20551;-72
2022/07/04 08:51:15;;;;;;;2.65;0.60;;;;;;;;;;4992856;28;20030;-71
2022/07/04 08:53:48;;;;;;;4.95;0.63;;;22.50;99.90;;;;;;5006143;28;20104;-72
2022/07/04 08:58:59;;;;;;;2.35;0.80;;;;;;;;;;4995511;28;20036;-72
2022/07/04 09:01:25;;;;;;;3.90;0.82;;;;;;;;;;5012680;28;20071;-71
2022/07/04 09:03:52;;;;;;;1.60;0.65;;;21.50;99.90;;;;;;5011542;28;20038;-72
2022/07/04 09:06:18;;;;;;;1.55;0.70;;;;;;;;;;5013685;28;20034;-72
2022/07/04 09:08:44;;;;;;;3.22;0.95;;;;;;;;;;4996350;28;20034;-71
2022/07/04 09:11:12;;;;;;;3.58;1.27;;;;;;;;;;5012225;28;20120;-71
2022/07/04 09:13:38;;;;;;;2.58;0.77;;;23.20;99.90;;;;;;5002984;28;20038;-71
2022/07/04 09:16:03;;;;;;;2.15;0.68;;;23.50;99.90;;;;;;4985065;28;20030;-72
2022/07/04 09:18:29;;;;;;;6.88;0.70;;;;;;;;;;4995579;28;20037;-71
2022/07/04 09:20:59;;;;;;;2.00;0.57;;;;;;;;;;5013345;28;20218;-72
2022/07/04 09:23:27;;;;;;;4.10;0.80;;;;;;;;;;5013171;28;20038;-71
2022/07/04 09:26:12;;;;;;;3.28;0.63;;;;;;;;;;5013517;28;20045;-71
2022/07/04 09:28:39;;;;;;;0.90;0.70;;;24.60;96.00;;;;;;5012234;28;20037;-71
2022/07/04 09:31:36;;;;;;;4.07;0.80;;;24.40;96.30;;;;;;4993545;28;20037;-72
2022/07/04 09:34:06;;;;;;;1.85;0.50;;;;;;;;;;4992982;28;20042;-71
2022/07/04 09:36:39;;;;;;;2.38;0.65;;;25.30;95.30;;;;;;5011411;28;20054;-71
2022/07/04 09:39:06;;;;;;;2.58;0.60;;;;;;;;;;5012644;28;20445;-72
2022/07/04 09:41:55;;;;;;;2.90;0.75;;;25.90;92.40;;;;;;5013398;28;20032;-72
2022/07/04 09:44:22;;;;;;;1.73;0.60;;;;;;;;;;5005297;28;20092;-72
2022/07/04 09:46:48;;;;;;;2.45;0.52;;;;;;;;;;5008873;28;20026;-73
2022/07/04 09:49:14;;;;;;;2.58;0.68;;;;;;;;;;5004236;28;20053;-74
2022/07/04 09:51:47;;;;;;;1.27;0.50;;;;;;;;;;5005899;28;20445;-74
2022/07/04 09:54:14;;;;;;;5.20;0.95;;;;;;;;;;5006980;28;20041;-74
2022/07/04 09:56:41;;;;;;;4.25;1.00;;;;;;;;;;4984215;28;20034;-71
2022/07/04 09:59:07;;;;;;;4.93;1.48;;;;;;;;;;5008106;28;20470;-71
2022/07/04 10:01:33;;;;;;;2.00;0.60;;;24.50;95.90;;;;;;5005146;28;20097;-71
2022/07/04 10:03:59;;;;;;;3.83;0.93;;;;;;;;;;5010992;28;20450;-72
2022/07/04 10:06:26;;;;;;;3.47;0.75;;;;;;;;;;5001549;28;20030;-72
2022/07/04 10:08:51;;;;;;;5.10;0.60;;;;;;;;;;5011223;28;20466;-72
2022/07/04 10:11:18;;;;;;;4.40;1.40;;;25.50;97.80;;;;;;5004863;28;20041;-72
2022/07/04 10:13:44;;;;;;;1.83;0.50;;;;;;;;;;5011035;28;20133;-72
2022/07/04 10:16:11;;;;;;;2.33;0.60;;;;;;;;;;5003119;28;20525;-72
2022/07/04 10:18:37;;;;;;;2.15;0.52;;;;;;;;;;5004743;28;20100;-71
2022/07/04 10:21:03;;;;;;;10.38;6.22;;;;;;;;;;5009569;28;20510;-76
2022/07/04 10:23:31;;;;;;;2.85;0.65;;;;;;;;;;5010737;28;20033;-76
2022/07/04 10:25:57;;;;;;;1.88;0.55;;;;;;;;;;5013518;28;20065;-72
2022/07/04 10:28:24;;;;;;;3.28;0.68;;;26.40;95.30;;;;;;5004153;28;20125;-71
2022/07/04 10:30:54;;;;;;;1.95;0.47;;;;;;;;;;4991881;28;20478;-73
2022/07/04 10:33:26;;;;;;;1.15;0.38;;;26.60;90.00;;;;;;5001073;28;20524;-72
2022/07/04 10:35:55;;;;;;;5.85;0.70;;;;;;;;;;5010585;28;20034;-72
2022/07/04 10:38:22;;;;;;;1.63;0.28;;;26.70;88.50;;;;;;5004423;28;20022;-72
2022/07/04 10:41:01;;;;;;;1.95;0.45;;;26.80;89.60;;;;;;5008406;28;20076;-72
2022/07/04 10:45:57;;;;;;;1.75;0.40;;;27.10;93.90;;;;;;5000081;28;20100;-71
2022/07/04 10:48:23;;;;;;;2.10;0.38;;;;;;;;;;5024533;28;20040;-71
2022/07/04 10:51:03;;;;;;;0.80;0.40;;;26.80;85.80;;;;;;5006565;28;20377;-71
2022/07/04 10:53:29;;;;;;;1.73;0.52;;;26.80;93.70;;;;;;5011165;28;20029;-72
2022/07/04 10:56:14;;;;;;;1.98;0.65;;;;;;;;;;5008687;28;20033;-71
2022/07/04 10:58:41;;;;;;;4.18;2.30;;;;;;;;;;5008449;28;20670;-72
2022/07/04 11:01:17;;;;;;;2.20;0.60;;;27.20;84.70;;;;;;5007424;28;20030;-71
2022/07/04 11:03:50;;;;;;;2.45;0.50;;;;;;;;;;5010290;28;20037;-71
2022/07/04 11:06:37;;;;;;;2.15;0.60;;;26.90;82.80;;;;;;5011714;28;20041;-70
2022/07/04 11:09:12;;;;;;;3.05;0.60;;;27.20;83.30;;;;;;4990811;28;20018;-71
2022/07/04 11:11:57;;;;;;;2.33;0.63;;;27.00;82.20;;;;;;4998169;28;20441;-71
2022/07/04 11:14:44;;;;;;;2.70;0.40;;;27.00;83.10;;;;;;5010924;28;20054;-70
2022/07/04 11:17:10;;;;;;;4.82;0.80;;;;;;;;;;5001564;28;20499;-71
2022/07/04 11:19:36;;;;;;;5.78;0.93;;;;;;;;;;5009288;28;20034;-71
2022/07/04 11:22:04;;;;;;;4.35;0.73;;;26.10;94.30;;;;;;5008354;28;20036;-71
2022/07/04 11:24:31;;;;;;;2.08;0.43;;;;;;;;;;4993176;28;20033;-71
2022/07/04 11:26:57;;;;;;;3.97;0.70;;;26.30;95.50;;;;;;4993285;28;20038;-70
2022/07/04 11:29:23;;;;;;;1.52;0.50;;;;;;;;;;5010623;28;20117;-70
2022/07/04 11:31:49;;;;;;;3.53;0.80;;;;;;;;;;5009339;28;20064;-71
2022/07/04 11:34:16;;;;;;;1.67;0.63;;;;;;;;;;5010125;28;20030;-71
2022/07/04 11:36:46;;;;;;;2.35;0.70;;;;;;;;;;5011457;28;20034;-71
2022/07/04 11:39:19;;;;;;;1.92;0.40;;;;;;;;;;5008741;28;20030;-71
2022/07/04 11:47:32;;;;;;;1.67;0.52;;;26.50;89.90;;;;;;5006512;28;20033;-71
2022/07/04 11:49:58;;;;;;;2.22;0.65;;;;;;;;;;5009728;28;20030;-71
2022/07/04 11:52:53;;;;;;;5.63;0.60;;;;;;;;;;5010739;28;20069;-71
2022/07/04 11:55:19;;;;;;;2.85;0.70;;;;;;;;;;5005757;28;20034;-71
2022/07/04 11:57:54;;;;;;;7.15;0.85;;;26.20;90.10;;;;;;5009296;28;20429;-71
2022/07/04 12:00:24;;;;;;;1.23;0.70;;;26.20;90.10;;;;;;5010869;28;20111;-71
2022/07/04 12:02:50;;;;;;;2.72;0.50;;;26.00;95.70;;;;;;5007772;28;20034;-70
2022/07/04 12:05:17;;;;;;;1.80;0.50;;;25.70;90.10;;;;;;5009922;28;20080;-70
2022/07/04 12:07:44;;;;;;;2.92;0.63;;;;;;;;;;4992043;28;20112;-71
2022/07/04 12:10:21;;;;;;;2.63;0.57;;;25.70;90.10;;;;;;5011097;28;20033;-70
2022/07/04 12:12:52;;;;;;;1.50;0.50;;;;;;;;;;5009886;28;20026;-70
2022/07/04 12:15:18;;;;;;;2.60;0.60;;;25.60;88.90;;;;;;5009067;28;20022;-71
2022/07/04 12:17:44;;;;;;;3.25;0.73;;;;;;;;;;4995767;28;20041;-71
2022/07/04 12:20:17;;;;;;;3.23;0.80;;;;;;;;;;5006923;28;20049;-71
2022/07/04 12:22:49;;;;;;;2.10;0.70;;;26.10;87.50;;;;;;5011005;28;20624;-71
2022/07/04 12:25:21;;;;;;;2.78;0.65;;;;;;;;;;5013310;28;20038;-71
2022/07/04 12:27:53;;;;;;;1.73;0.50;;;;;;;;;;5014553;28;20072;-71
2022/07/04 12:30:20;;;;;;;1.27;0.40;;;;;;;;;;5010314;28;20033;-70
2022/07/04 12:32:56;;;;;;;2.95;0.40;;;26.00;86.60;;;;;;4994409;28;20054;-70
2022/07/04 12:35:34;;;;;;;2.13;0.50;;;;;;;;;;5004346;28;20030;-70
2022/07/04 12:38:00;;;;;;;2.67;0.70;;;;;;;;;;5006699;28;20072;-70
2022/07/04 12:40:26;;;;;;;6.22;3.78;;;;;;;;;;5009816;28;20052;-71
2022/07/04 12:42:56;;;;;;;2.88;0.60;;;26.20;87.50;;;;;;5003165;28;20027;-70
2022/07/04 12:45:22;;;;;;;3.53;0.40;;;;;;;;;;4995849;28;20125;-71
2022/07/04 12:47:48;;;;;;;3.25;0.80;;;;;;;;;;5010325;28;20486;-71
2022/07/04 12:50:14;;;;;;;4.43;0.70;;;26.30;92.00;;;;;;5013244;28;20044;-71
2022/07/04 12:52:42;;;;;;;2.55;0.60;;;;;;;;;;5008696;28;20030;-72
2022/07/04 12:55:10;;;;;;;3.30;0.57;;;26.40;86.90;;;;;;4990951;28;20071;-71
2022/07/04 12:57:36;;;;;;;3.15;0.57;;;;;;;;;;5013789;28;20032;-70
2022/07/04 13:00:03;;;;;;;2.75;0.47;;;;;;;;;;5013854;28;20141;-70
2022/07/04 13:02:29;;;;;;;2.15;0.70;;;;;;;;;;5011324;28;20120;-70
2022/07/04 13:04:56;;;;;;;1.90;0.50;;;;;;;;;;5006466;28;20109;-71
2022/07/04 13:07:22;;;;;;;3.47;0.55;;;;;;;;;;5013597;28;20038;-70
2022/07/04 13:09:48;;;;;;;3.22;1.20;;;;;;;;;;5011282;28;20034;-70
2022/07/04 13:12:27;;;;;;;4.55;0.80;;;;;;;;;;4981065;28;20042;-70
2022/07/04 13:14:55;;;;;;;3.13;0.52;;;25.90;87.90;;;;;;5001374;28;20050;-71
2022/07/04 13:17:21;;;;;;;1.02;0.40;;;;;;;;;;5010982;28;20034;-70
2022/07/04 13:19:47;;;;;;;1.38;0.50;;;;;;;;;;4996036;28;20023;-71
2022/07/04 13:22:13;;;;;;;4.65;1.02;;;26.00;94.50;;;;;;5010637;28;20026;-70
2022/07/04 13:24:39;;;;;;;7.53;0.63;;;26.10;94.50;;;;;;5013511;28;20049;-70
2022/07/04 13:27:05;;;;;;;2.15;0.47;;;26.10;94.30;;;;;;5018587;28;20543;-70
2022/07/04 13:29:31;;;;;;;1.40;0.38;;;;;;;;;;5012261;28;20135;-70
2022/07/04 13:31:56;;;;;;;1.55;0.30;;;25.80;94.50;;;;;;5012696;28;20025;-70
2022/07/04 13:34:22;;;;;;;0.80;0.20;;;;;;;;;;5004436;28;20058;-72
2022/07/04 13:36:51;;;;;;;2.08;0.65;;;;;;;;;;5008915;28;20022;-70
2022/07/04 13:39:17;;;;;;;1.33;0.73;;;;;;;;;;4993402;28;20048;-71
2022/07/04 13:41:43;;;;;;;4.03;0.60;;;;;;;;;;5010424;28;20482;-71
2022/07/04 13:44:09;;;;;;;4.28;0.55;;;25.70;90.40;;;;;;5012201;28;20117;-70
2022/07/04 13:46:36;;;;;;;0.82;0.35;;;;;;;;;;4993363;28;20113;-71
2022/07/04 13:49:02;;;;;;;3.55;0.50;;;;;;;;;;5004150;28;20026;-71
2022/07/04 13:51:28;;;;;;;1.58;0.40;;;;;;;;;;5007681;28;20046;-71
2022/07/04 13:53:54;;;;;;;1.38;0.30;;;;;;;;;;5004012;28;20038;-70
2022/07/04 13:56:20;;;;;;;1.27;0.75;;;;;;;;;;5011072;28;20084;-71
2022/07/04 13:58:48;;;;;;;3.10;0.52;;;;;;;;;;5012619;28;20053;-71
2022/07/04 14:01:16;;;;;;;2.10;0.30;;;;;;;;;;5012295;28;20382;-71
2022/07/04 14:03:42;;;;;;;1.60;0.50;;;25.30;95.20;;;;;;4994976;28;20030;-70
2022/07/04 14:06:08;;;;;;;1.65;0.30;;;25.30;91.80;;;;;;5012048;28;20040;-72
2022/07/04 14:08:34;;;;;;;4.88;0.30;;;;;;;;;;5007757;28;20120;-71
2022/07/04 14:11:00;;;;;;;1.48;0.38;;;;;;;;;;5011145;28;20034;-70
2022/07/04 14:13:26;;;;;;;1.95;0.40;;;25.30;95.40;;;;;;5010271;28;20050;-71
2022/07/04 14:15:52;;;;;;;3.92;0.40;;;;;;;;;;5010584;28;20135;-71
2022/07/04 14:18:18;;;;;;;1.65;0.32;;;;;;;;;;5004259;28;20054;-71
2022/07/04 14:20:45;;;;;;;0.60;0.10;;;;;;;;;;5011194;28;20084;-73
2022/07/04 14:23:12;;;;;;;1.65;0.55;;;25.30;94.70;;;;;;4974548;28;20137;-72
2022/07/04 14:25:38;;;;;;;2.58;0.30;;;25.20;94.70;;;;;;5016813;28;20584;-73
2022/07/04 14:28:04;;;;;;;1.27;0.35;;;;;;;;;;5005806;28;20029;-73
2022/07/04 14:30:30;;;;;;;2.92;0.52;;;;;;;;;;5011157;28;20033;-72
2022/07/04 14:32:56;;;;;;;2.40;0.30;;;;;;;;;;5011578;28;20099;-72
2022/07/04 14:35:22;;;;;;;1.50;0.30;;;;;;;;;;5010488;28;20414;-72
2022/07/04 14:37:48;;;;;;;7.15;0.50;;;;;;;;;;5005401;28;20033;-73
2022/07/04 14:40:17;;;;;;;1.30;0.50;;;;;;;;;;5005796;28;20306;-72